Other Surface Observations
Issued by NWS Great Falls, MT

Home | Current Version | Previous Version | Text Only | Print | Product List | Glossary On
Versions: 1 2 3 4 5 6 7 8 9 10 11 12 13 14 15 16 17 18 19 20 21 22 23 24 25 26 27 28 29 30 31 32 33 34 35 36 37 38 39 40 41 42 43 44 45 46 47 48 49 50
000
SXUS55 KTFX 241550
OSOTFX
AREA AWOS OBSERVATIONS
NATIONAL WEATHER SERVICE GREAT FALLS MT
0950 AM MDT FRI OCT 24 2014

METAR KPO1 241545Z AUTO 24008KT 10SM 11/05 A2994 RMK POPLAR
METAR K1S3 241545Z AUTO 24003KT 10SM 13/03 A3003 RMK FORSYTH
METAR KS71 241545Z AUTO 24009KT 10SM 09/01 A2999 RMK CHINOOK
METAR K79S 241545Z AUTO 22010G14KT 10SM 12/02 A3002 RMK FORT BENTON
METAR KEKS 241545Z AUTO 17011G16KT 10SM 11/03 A3017 RMK ENNIS
METAR K38S 241545Z AUTO 04003KT 10SM 06/03 A3018 RMK DEER LODGE
METAR K6S5 241545Z AUTO 00000KT 10SM 07/05 A3014 RMK HAMILTON
METAR KS59 241545Z AUTO 33003KT 10SM 06/04 A3009 RMK LIBBY



USA.gov is the U.S. government's official web portal to all federal, state and local government web resources and services.